createdAt,value
2019-04-21T00:02:03.408Z,67.24
2019-04-21T00:05:37.345Z,68.56
2019-04-21T00:08:57.839Z,69.51
2019-04-21T00:11:53.963Z,68.45
2019-04-21T00:14:46.269Z,67.67
2019-04-21T00:17:49.796Z,67.12
2019-04-21T00:20:56.890Z,67.39
2019-04-21T00:24:30.518Z,66.28
2019-04-21T00:27:33.723Z,67.39
2019-04-21T00:30:53.912Z,68.50
2019-04-21T00:33:39.885Z,68.12
2019-04-21T00:36:55.912Z,67.73
2019-04-21T00:40:16.603Z,67.85
2019-04-21T00:43:19.883Z,69.54
2019-04-21T00:46:26.383Z,67.32
2019-04-21T00:49:34.074Z,66.62
2019-04-21T00:53:16.906Z,66.45
2019-04-21T00:56:09.981Z,68.03
2019-04-21T00:59:21.396Z,68.06
2019-04-21T01:02:27.920Z,67.97
2019-04-21T01:05:37.538Z,69.58
2019-04-21T01:08:42.879Z,72.64
2019-04-21T01:11:51.885Z,67.65
2019-04-21T01:15:06.546Z,68.50
2019-04-21T01:18:04.732Z,69.60
2019-04-21T01:20:52.240Z,68.52
2019-04-21T01:24:07.936Z,71.50
2019-04-21T01:27:21.174Z,72.14
2019-04-21T01:30:34.594Z,69.15
2019-04-21T01:33:44.956Z,67.07
2019-04-21T01:36:53.014Z,69.39
2019-04-21T01:40:14.764Z,69.31
2019-04-21T01:43:07.782Z,68.42
2019-04-21T01:46:18.015Z,70.49
2019-04-21T01:49:18.176Z,69.24
2019-04-21T01:52:45.062Z,69.38
2019-04-21T01:55:52.865Z,71.44
2019-04-21T01:58:46.199Z,70.82
2019-04-21T02:02:08.113Z,69.94
2019-04-21T02:05:17.218Z,70.20
2019-04-21T02:08:15.396Z,66.86
2019-04-21T02:11:31.240Z,68.98
2019-04-21T02:14:45.855Z,68.70
2019-04-21T02:17:49.696Z,70.45
2019-04-21T02:20:45.652Z,69.12
2019-04-21T02:24:04.705Z,69.56
2019-04-21T02:27:14.995Z,69.37
2019-04-21T02:30:27.514Z,72.27
2019-04-21T02:39:57.261Z,72.23
2019-04-21T02:43:07.322Z,71.21
2019-04-21T02:46:19.551Z,71.89
2019-04-21T02:49:22.170Z,73.59
2019-04-21T02:52:30.985Z,72.38
2019-04-21T02:55:34.121Z,73.37
2019-04-21T03:02:35.180Z,73.57
2019-04-21T03:05:50.779Z,73.08
2019-04-21T03:09:18.431Z,72.51
2019-04-21T03:12:11.602Z,71.27
2019-04-21T03:18:32.721Z,73.11
2019-04-21T03:21:38.770Z,72.99
2019-04-21T03:27:57.262Z,72.45
2019-04-21T03:31:25.557Z,70.53
2019-04-21T03:34:41.166Z,71.73
2019-04-21T03:40:23.976Z,72.24
2019-04-21T03:43:34.560Z,75.63
2019-04-21T03:47:01.585Z,74.82
2019-04-21T03:50:01.882Z,75.35
2019-04-21T03:56:16.118Z,73.59
2019-04-21T03:59:14.222Z,75.71
2019-04-21T04:02:36.605Z,73.76
2019-04-21T04:09:19.450Z,76.20
2019-04-21T04:12:20.961Z,75.24
2019-04-21T04:15:38.604Z,76.26
2019-04-21T04:18:48.698Z,74.04
2019-04-21T04:22:04.330Z,74.13
2019-04-21T04:24:57.526Z,74.71
2019-04-21T04:31:22.247Z,74.99
2019-04-21T04:34:21.756Z,71.62
2019-04-21T04:37:32.090Z,71.59
2019-04-21T04:40:43.345Z,72.11
2019-04-21T04:43:56.737Z,72.52
2019-04-21T04:50:26.305Z,72.11
2019-04-21T04:53:25.866Z,72.23
2019-04-21T05:12:38.789Z,71.69
2019-04-21T05:15:50.536Z,72.15
2019-04-21T05:19:04.194Z,71.22
2019-04-21T05:22:03.464Z,72.19
2019-04-21T05:25:02.418Z,70.56
2019-04-21T05:28:04.564Z,69.34
2019-04-21T05:35:00.153Z,64.87
2019-04-21T05:38:06.252Z,63.90
2019-04-21T05:41:06.533Z,62.89
2019-04-21T05:44:31.180Z,63.53
2019-04-21T05:48:03.234Z,63.47
2019-04-21T05:50:58.879Z,61.99
2019-04-21T05:54:17.787Z,60.25
2019-04-21T05:57:15.992Z,61.27
2019-04-21T06:00:39.091Z,61.29
2019-04-21T06:03:44.881Z,61.74
2019-04-21T06:06:48.047Z,60.92
2019-04-21T06:09:57.172Z,60.17
2019-04-21T06:13:05.820Z,59.56
2019-04-21T06:16:08.888Z,58.13
2019-04-21T06:19:35.158Z,58.20
2019-04-21T06:22:28.862Z,57.97
2019-04-21T06:25:50.384Z,56.87
2019-04-21T06:28:50.369Z,57.44
2019-04-21T06:35:35.984Z,55.99
2019-04-21T06:39:12.046Z,55.42
2019-04-21T06:41:59.826Z,55.69
2019-04-21T06:45:31.823Z,54.60
2019-04-21T06:48:20.988Z,54.26
2019-04-21T06:51:27.632Z,54.09
2019-04-21T06:54:33.916Z,52.90
2019-04-21T06:57:40.299Z,51.25
2019-04-21T07:00:42.435Z,51.34
2019-04-21T07:04:06.862Z,51.04
2019-04-21T07:07:18.259Z,51.30
2019-04-21T07:10:26.603Z,49.36
2019-04-21T07:13:21.139Z,48.20
2019-04-21T07:16:31.868Z,48.58
2019-04-21T07:19:42.725Z,49.17
2019-04-21T07:22:51.176Z,47.00
2019-04-21T07:25:54.817Z,47.26
2019-04-21T07:29:07.938Z,45.83
2019-04-21T07:32:12.122Z,45.02
2019-04-21T07:35:22.080Z,45.49
2019-04-21T07:38:31.819Z,46.26
2019-04-21T07:41:30.986Z,43.51
2019-04-21T07:44:35.041Z,46.06
2019-04-21T07:47:57.888Z,44.50
2019-04-21T07:51:31.535Z,45.39
2019-04-21T07:54:44.349Z,45.57
2019-04-21T07:57:49.709Z,43.43
2019-04-21T08:01:04.304Z,43.82
2019-04-21T08:04:14.727Z,44.26
2019-04-21T08:07:12.897Z,42.59
2019-04-21T08:10:23.170Z,42.20
2019-04-21T08:13:34.509Z,41.16
2019-04-21T08:16:36.812Z,41.82
2019-04-21T08:19:43.011Z,42.02
2019-04-21T08:23:13.172Z,43.37
2019-04-21T08:26:15.148Z,40.60
2019-04-21T08:29:22.464Z,41.20
2019-04-21T08:32:26.580Z,46.05
2019-04-21T08:36:00.781Z,45.44
2019-04-21T08:38:37.778Z,45.40
2019-04-21T08:41:43.941Z,45.46
2019-04-21T08:44:52.711Z,44.43
2019-04-21T08:47:59.163Z,45.33
2019-04-21T08:51:22.531Z,43.93
2019-04-21T08:54:23.612Z,44.37
2019-04-21T08:57:53.874Z,45.30
2019-04-21T09:01:11.697Z,41.94
2019-04-21T09:04:21.222Z,43.41
2019-04-21T09:10:34.932Z,42.25
2019-04-21T09:13:44.264Z,41.66
2019-04-21T09:16:50.294Z,40.59
2019-04-21T09:20:07.956Z,39.47
2019-04-21T09:23:11.070Z,38.05
2019-04-21T09:26:20.069Z,41.44
2019-04-21T09:29:15.868Z,41.92
2019-04-21T09:32:20.333Z,41.17
2019-04-21T09:35:25.318Z,42.00
2019-04-21T09:38:38.010Z,36.33
2019-04-21T09:41:41.077Z,33.30
2019-04-21T09:44:52.255Z,35.30
2019-04-21T09:48:02.696Z,31.04
2019-04-21T09:51:04.718Z,31.03
2019-04-21T09:54:20.165Z,32.93
2019-04-21T09:57:27.668Z,30.84
2019-04-21T10:00:31.385Z,32.85
2019-04-21T10:03:41.302Z,32.04
2019-04-21T10:06:43.822Z,32.14
2019-04-21T10:09:52.450Z,32.01
2019-04-21T10:12:59.005Z,31.12
2019-04-21T10:16:37.004Z,32.32
2019-04-21T10:19:44.139Z,32.94
2019-04-21T10:22:50.958Z,30.57
2019-04-21T10:25:59.007Z,32.96
2019-04-21T10:29:09.400Z,32.20
2019-04-21T10:32:13.694Z,28.32
2019-04-21T10:35:21.775Z,30.96
2019-04-21T10:38:36.770Z,33.12
2019-04-21T10:41:37.347Z,32.02
2019-04-21T10:44:45.035Z,31.26
2019-04-21T10:47:52.896Z,31.51
2019-04-21T10:50:59.312Z,32.81
2019-04-21T10:54:06.322Z,31.15
2019-04-21T10:57:17.500Z,31.75
2019-04-21T11:00:24.164Z,29.99
2019-04-21T11:03:40.382Z,30.60
2019-04-21T11:06:48.223Z,31.34
2019-04-21T11:09:56.080Z,33.32
2019-04-21T11:13:02.921Z,32.19
2019-04-21T11:16:09.453Z,31.03
2019-04-21T11:19:16.183Z,32.50
2019-04-21T11:22:23.080Z,30.89
2019-04-21T11:25:30.461Z,30.60
2019-04-21T11:28:36.992Z,29.75
2019-04-21T11:31:43.418Z,29.38
2019-04-21T11:34:51.409Z,31.30
2019-04-21T11:38:08.367Z,32.18
2019-04-21T11:41:11.947Z,31.37
2019-04-21T11:44:22.846Z,32.72
2019-04-21T11:47:32.382Z,30.48
2019-04-21T11:50:39.205Z,31.09
2019-04-21T11:53:46.649Z,32.01
2019-04-21T11:56:54.905Z,30.66
2019-04-21T12:00:01.779Z,32.83
2019-04-21T12:03:11.981Z,33.31
2019-04-21T12:06:17.561Z,30.16
2019-04-21T12:09:25.110Z,30.33
2019-04-21T12:12:31.394Z,32.01
2019-04-21T12:15:39.047Z,29.16
2019-04-21T12:18:47.199Z,29.63
2019-04-21T12:22:05.026Z,29.78
2019-04-21T12:25:07.175Z,28.64
2019-04-21T12:28:47.934Z,29.85
2019-04-21T12:32:12.425Z,28.24
2019-04-21T12:35:19.731Z,30.44
2019-04-21T12:38:36.445Z,29.22
2019-04-21T12:41:36.308Z,31.22
2019-04-21T12:44:43.899Z,31.02
2019-04-21T12:47:52.428Z,30.59
2019-04-21T12:50:59.802Z,29.23
2019-04-21T12:54:08.037Z,29.12
2019-04-21T12:57:14.316Z,30.45
2019-04-21T13:00:22.825Z,30.32
2019-04-21T13:03:30.374Z,30.15
2019-04-21T13:06:37.372Z,30.87
2019-04-21T13:09:48.343Z,30.01
2019-04-21T13:12:56.261Z,31.07
2019-04-21T13:16:03.248Z,29.51
2019-04-21T13:19:09.642Z,31.43
2019-04-21T13:22:16.282Z,28.29
2019-04-21T13:25:25.611Z,28.74
2019-04-21T13:28:32.521Z,28.60
2019-04-21T13:31:38.728Z,27.35
2019-04-21T13:34:46.281Z,29.09
2019-04-21T13:37:54.259Z,30.48
2019-04-21T13:41:25.791Z,31.91
2019-04-21T13:44:19.668Z,31.53
2019-04-21T13:47:28.247Z,30.51
2019-04-21T13:50:35.285Z,29.71
2019-04-21T13:53:43.912Z,30.64
2019-04-21T13:56:52.348Z,30.35
2019-04-21T13:59:59.293Z,31.01
2019-04-21T14:03:07.127Z,32.36
2019-04-21T14:06:14.148Z,30.94
2019-04-21T14:09:35.980Z,30.83
2019-04-21T14:12:33.203Z,29.71
2019-04-21T14:15:39.982Z,31.32
2019-04-21T14:18:47.396Z,30.49
2019-04-21T14:21:55.070Z,31.20
2019-04-21T14:25:03.672Z,30.31
2019-04-21T14:28:12.232Z,30.80
2019-04-21T14:31:20.004Z,31.48
2019-04-21T14:34:26.159Z,32.07
2019-04-21T14:37:32.868Z,30.85
2019-04-21T14:40:39.202Z,32.54
2019-04-21T14:43:45.938Z,31.15
2019-04-21T14:46:58.002Z,32.47
2019-04-21T14:50:22.254Z,29.95
2019-04-21T14:53:36.037Z,31.58
2019-04-21T14:56:43.081Z,30.45
2019-04-21T14:59:49.370Z,32.34
2019-04-21T15:02:55.949Z,30.74
2019-04-21T15:06:03.266Z,32.49
2019-04-21T15:09:11.174Z,31.61
2019-04-21T15:12:18.240Z,31.56
2019-04-21T15:15:25.611Z,31.15
2019-04-21T15:18:32.801Z,31.65
2019-04-21T15:21:40.403Z,32.44
2019-04-21T15:24:48.122Z,31.35
2019-04-21T15:27:54.978Z,30.62
2019-04-21T15:31:02.910Z,31.68
2019-04-21T15:34:10.901Z,31.60
2019-04-21T15:37:19.863Z,31.28
2019-04-21T15:40:39.851Z,31.05
2019-04-21T15:43:36.300Z,30.79
2019-04-21T15:46:43.966Z,31.61
2019-04-21T15:50:02.915Z,30.92
2019-04-21T15:53:07.717Z,32.41
2019-04-21T15:56:21.056Z,31.15
2019-04-21T15:59:42.253Z,31.75
2019-04-21T16:02:50.848Z,32.80
2019-04-21T16:05:57.541Z,32.77
2019-04-21T16:09:06.436Z,32.15
2019-04-21T16:12:13.749Z,30.17
2019-04-21T16:15:20.932Z,31.07
2019-04-21T16:18:27.999Z,32.43
2019-04-21T16:21:38.366Z,32.35
2019-04-21T16:24:44.435Z,33.01
2019-04-21T16:27:51.088Z,31.83
2019-04-21T16:30:58.413Z,33.11
2019-04-21T16:34:05.201Z,32.02
2019-04-21T16:37:11.921Z,33.41
2019-04-21T16:40:19.378Z,32.36
2019-04-21T16:43:29.128Z,34.15
2019-04-21T16:46:35.814Z,33.99
2019-04-21T16:49:43.706Z,33.40
2019-04-21T16:53:01.768Z,33.22
2019-04-21T16:56:17.816Z,32.46
2019-04-21T16:59:32.725Z,33.08
2019-04-21T17:02:40.587Z,34.08
2019-04-21T17:05:48.140Z,33.94
2019-04-21T17:08:54.751Z,34.76
2019-04-21T17:12:04.006Z,35.76
2019-04-21T17:15:24.796Z,35.50
2019-04-21T17:18:33.145Z,35.00
2019-04-21T17:21:30.125Z,35.44
2019-04-21T17:24:38.007Z,36.66
2019-04-21T17:27:44.926Z,37.11
2019-04-21T17:30:52.796Z,37.77
2019-04-21T17:34:07.530Z,38.59
2019-04-21T17:37:08.832Z,37.75
2019-04-21T17:40:24.066Z,37.72
2019-04-21T17:43:31.958Z,38.68
2019-04-21T17:46:47.832Z,40.13
2019-04-21T17:49:49.155Z,37.63
2019-04-21T17:53:06.534Z,38.92
2019-04-21T17:56:29.370Z,39.39
2019-04-21T17:59:53.716Z,40.46
2019-04-21T18:02:51.532Z,40.29
2019-04-21T18:05:50.357Z,40.55
2019-04-21T18:09:10.433Z,40.64
2019-04-21T18:12:11.965Z,41.07
2019-04-21T18:15:21.949Z,41.95
2019-04-21T18:18:14.503Z,42.04
2019-04-21T18:21:46.896Z,41.33
2019-04-21T18:24:59.287Z,42.23
2019-04-21T18:27:58.755Z,42.41
2019-04-21T18:31:12.261Z,43.06
2019-04-21T18:34:45.594Z,43.24
2019-04-21T18:38:11.379Z,43.48
2019-04-21T18:41:13.250Z,42.27
2019-04-21T18:45:23.975Z,42.62
2019-04-21T18:48:10.879Z,42.95
2019-04-21T18:51:20.187Z,43.03
2019-04-21T18:54:41.440Z,42.92
2019-04-21T18:57:41.814Z,43.53
2019-04-21T19:00:44.178Z,42.55
2019-04-21T19:03:54.574Z,42.76
2019-04-21T19:07:15.570Z,43.35
2019-04-21T19:10:36.391Z,43.24
2019-04-21T19:14:15.818Z,42.38
2019-04-21T19:17:39.589Z,42.85
2019-04-21T19:23:34.612Z,42.56
2019-04-21T19:26:38.890Z,43.18
2019-04-21T19:29:45.181Z,42.70
2019-04-21T19:32:45.398Z,42.72
2019-04-21T19:35:41.520Z,42.55
2019-04-21T19:38:58.660Z,42.74
2019-04-21T19:42:03.111Z,43.19
2019-04-21T19:45:17.602Z,42.50
2019-04-21T19:48:33.290Z,44.72
2019-04-21T19:51:36.474Z,43.72
2019-04-21T19:54:36.384Z,44.89
2019-04-21T19:57:41.044Z,47.57
2019-04-21T20:00:50.788Z,47.66
2019-04-21T20:04:00.541Z,48.05
2019-04-21T20:07:20.861Z,49.63
2019-04-21T20:10:35.009Z,50.27
2019-04-21T20:13:59.817Z,50.78
2019-04-21T20:16:44.884Z,49.80
2019-04-21T20:19:38.401Z,50.69
2019-04-21T20:22:50.336Z,51.87
2019-04-21T20:26:00.424Z,53.20
2019-04-21T20:29:22.172Z,53.48
2019-04-21T20:35:46.570Z,55.21
2019-04-21T20:38:39.264Z,54.96
2019-04-21T20:41:46.763Z,54.82
2019-04-21T20:45:16.634Z,54.06
2019-04-21T20:47:54.622Z,55.14
2019-04-21T20:51:18.610Z,55.92
2019-04-21T20:54:27.115Z,56.31
2019-04-21T20:57:32.859Z,56.24
2019-04-21T21:00:48.750Z,56.72
2019-04-21T21:03:47.933Z,57.32
2019-04-21T21:07:04.536Z,57.24
2019-04-21T21:10:10.950Z,60.70
2019-04-21T21:16:41.641Z,58.50
2019-04-21T21:19:40.099Z,60.40
2019-04-21T21:22:46.571Z,61.39
2019-04-21T21:26:00.645Z,61.09
2019-04-21T21:29:00.427Z,62.09
2019-04-21T21:35:18.997Z,63.61
2019-04-21T21:38:30.871Z,63.49
2019-04-21T21:44:30.341Z,63.82
2019-04-21T21:47:53.354Z,67.14
2019-04-21T21:50:57.659Z,66.68
2019-04-21T21:53:52.896Z,65.99
2019-04-21T21:57:00.664Z,65.81
2019-04-21T22:00:12.393Z,67.32
2019-04-21T22:03:27.428Z,66.62
2019-04-21T22:06:41.001Z,67.64
2019-04-21T22:09:36.966Z,67.55
2019-04-21T22:12:53.969Z,68.07
2019-04-21T22:15:56.481Z,66.54
2019-04-21T22:19:14.288Z,68.79
2019-04-21T22:22:23.335Z,66.73
2019-04-21T22:25:24.313Z,67.40
2019-04-21T22:28:25.503Z,67.10
2019-04-21T22:31:37.101Z,65.91
2019-04-21T22:34:48.716Z,67.80
2019-04-21T22:38:02.307Z,67.89
2019-04-21T22:41:09.879Z,69.50
2019-04-21T22:44:06.853Z,67.96
2019-04-21T22:47:18.379Z,68.22
2019-04-21T22:50:30.694Z,68.74
2019-04-21T22:53:44.558Z,66.21
2019-04-21T22:56:56.280Z,64.96
2019-04-21T22:59:59.766Z,64.41
2019-04-21T23:03:09.886Z,64.67
2019-04-21T23:06:19.595Z,65.19
2019-04-21T23:09:19.588Z,64.95
2019-04-21T23:12:30.702Z,66.11
2019-04-21T23:15:43.922Z,65.37
2019-04-21T23:18:59.373Z,65.74
2019-04-21T23:22:09.516Z,66.61
2019-04-21T23:25:18.157Z,64.36
2019-04-21T23:28:22.219Z,63.64
2019-04-21T23:31:34.425Z,63.74
2019-04-21T23:34:34.066Z,65.61
2019-04-21T23:37:44.938Z,65.04
2019-04-21T23:40:48.479Z,65.30
2019-04-21T23:44:00.600Z,66.50
2019-04-21T23:47:04.789Z,65.11
2019-04-21T23:50:22.152Z,65.19
2019-04-21T23:53:19.459Z,65.88
2019-04-21T23:56:33.055Z,65.11
2019-04-21T23:59:40.995Z,65.81
